createdAt,value
2024-04-25T00:00:40.011Z,15.80
2024-04-25T00:03:14.907Z,16.33
2024-04-25T00:05:52.572Z,15.77
2024-04-25T00:08:27.376Z,13.13
2024-04-25T00:11:02.227Z,15.13
2024-04-25T00:13:37.011Z,15.13
2024-04-25T00:16:11.747Z,14.95
2024-04-25T00:18:46.654Z,16.35
2024-04-25T00:21:24.141Z,13.45
2024-04-25T00:23:59.138Z,15.50
2024-04-25T00:26:33.980Z,13.45
2024-04-25T00:29:08.944Z,13.90
2024-04-25T00:31:43.791Z,12.77
2024-04-25T00:34:18.656Z,12.40
2024-04-25T00:36:56.112Z,14.52
2024-04-25T00:39:31.022Z,12.27
2024-04-25T00:42:05.876Z,13.02
2024-04-25T00:44:41.250Z,14.48
2024-04-25T00:47:18.942Z,12.35
2024-04-25T00:49:57.613Z,12.98
2024-04-25T00:52:35.878Z,13.23
2024-04-25T00:55:11.439Z,15.52
2024-04-25T00:57:47.651Z,13.50
2024-04-25T01:00:24.329Z,14.27
2024-04-25T01:02:59.743Z,15.25
2024-04-25T01:05:37.823Z,13.27
2024-04-25T01:08:16.264Z,13.60
2024-04-25T01:10:51.663Z,13.02
2024-04-25T01:13:26.575Z,10.90
2024-04-25T01:16:02.201Z,11.20
2024-04-25T01:18:37.674Z,12.65
2024-04-25T01:21:12.415Z,11.15
2024-04-25T01:23:52.886Z,14.05
2024-04-25T01:26:30.863Z,11.68
2024-04-25T01:29:09.617Z,9.55
2024-04-25T01:31:45.522Z,11.40
2024-04-25T01:34:21.143Z,10.07
2024-04-25T01:36:56.878Z,14.98
2024-04-25T01:39:32.202Z,10.30
2024-04-25T01:42:10.077Z,18.00
2024-04-25T01:44:44.854Z,11.88
2024-04-25T01:47:19.749Z,11.38
2024-04-25T01:49:54.534Z,9.32
2024-04-25T01:52:29.293Z,9.65
2024-04-25T01:55:04.091Z,8.68
2024-04-25T01:57:41.472Z,9.05
2024-04-25T02:00:16.690Z,10.80
2024-04-25T02:02:51.748Z,9.73
2024-04-25T02:05:26.668Z,10.18
2024-04-25T02:08:01.470Z,9.18
2024-04-25T02:10:36.325Z,9.60
2024-04-25T02:13:13.687Z,11.18
2024-04-25T02:15:48.505Z,10.38
2024-04-25T02:18:23.363Z,9.82
2024-04-25T02:21:14.049Z,9.48
2024-04-25T02:24:04.627Z,13.10
2024-04-25T02:26:39.438Z,10.25
2024-04-25T02:29:16.954Z,10.25
2024-04-25T02:31:51.742Z,10.70
2024-04-25T02:34:26.561Z,10.05
2024-04-25T02:37:01.388Z,9.38
2024-04-25T02:39:36.646Z,9.63
2024-04-25T02:42:11.397Z,11.95
2024-04-25T02:44:46.284Z,9.88
2024-04-25T02:47:21.240Z,10.75
2024-04-25T02:49:53.520Z,11.57
2024-04-25T02:52:28.391Z,8.55
2024-04-25T02:55:00.894Z,9.50
2024-04-25T02:57:35.676Z,9.07
2024-04-25T03:00:11.834Z,10.05
2024-04-25T03:02:46.758Z,8.98
2024-04-25T03:05:21.810Z,9.93
2024-04-25T03:07:54.108Z,9.77
2024-04-25T03:10:28.998Z,10.35
2024-04-25T03:13:01.208Z,11.27
2024-04-25T03:15:38.587Z,8.43
2024-04-25T03:18:11.023Z,8.50
2024-04-25T03:20:45.972Z,11.13
2024-04-25T03:23:18.387Z,10.40
2024-04-25T03:25:53.262Z,9.13
2024-04-25T03:28:25.550Z,9.80
2024-04-25T03:31:03.102Z,9.40
2024-04-25T03:33:35.553Z,9.70
2024-04-25T03:36:10.727Z,9.98
2024-04-25T03:38:45.558Z,10.40
2024-04-25T03:41:21.011Z,9.05
2024-04-25T03:43:55.938Z,8.75
2024-04-25T03:46:33.271Z,10.85
2024-04-25T03:49:09.591Z,8.88
2024-04-25T03:51:44.427Z,9.80
2024-04-25T03:54:19.257Z,8.48
2024-04-25T03:56:54.106Z,9.05
2024-04-25T03:59:29.222Z,9.95
2024-04-25T04:02:06.886Z,11.65
2024-04-25T04:04:42.503Z,10.65
2024-04-25T04:07:17.289Z,9.20
2024-04-25T04:09:52.090Z,9.02
2024-04-25T04:12:27.071Z,9.55
2024-04-25T04:15:01.948Z,9.65
2024-04-25T04:17:39.542Z,11.25
2024-04-25T04:20:14.541Z,9.32
2024-04-25T04:22:49.420Z,9.25
2024-04-25T04:25:24.348Z,11.90
2024-04-25T04:27:59.156Z,16.02
2024-04-25T04:30:34.007Z,15.65
2024-04-25T04:33:11.630Z,8.65
2024-04-25T04:35:46.490Z,10.77
2024-04-25T04:38:21.323Z,10.52
2024-04-25T04:40:56.352Z,10.38
2024-04-25T04:43:32.225Z,11.00
2024-04-25T04:46:07.367Z,11.23
2024-04-25T04:48:47.125Z,8.65
2024-04-25T04:51:22.456Z,15.93
2024-04-25T04:53:57.245Z,20.27
2024-04-25T04:56:32.171Z,14.13
2024-04-25T04:59:07.124Z,16.02
2024-04-25T05:01:42.018Z,14.13
2024-04-25T05:04:19.549Z,14.43
2024-04-25T05:06:54.440Z,18.98
2024-04-25T05:09:29.253Z,19.35
2024-04-25T05:12:04.363Z,19.75
2024-04-25T05:14:39.315Z,19.70
2024-04-25T05:17:14.496Z,15.82
2024-04-25T05:19:51.893Z,11.02
2024-04-25T05:22:26.686Z,16.55
2024-04-25T05:25:01.480Z,17.40
2024-04-25T05:27:38.041Z,19.58
2024-04-25T05:30:14.680Z,16.90
2024-04-25T05:32:50.550Z,24.90
2024-04-25T05:35:28.300Z,26.27
2024-04-25T05:38:03.257Z,20.35
2024-04-25T05:40:38.023Z,21.65
2024-04-25T05:43:14.303Z,16.35
2024-04-25T05:45:49.416Z,17.05
2024-04-25T05:48:24.419Z,15.75
2024-04-25T05:51:01.896Z,16.27
2024-04-25T05:53:36.669Z,18.92
2024-04-25T05:56:11.509Z,15.65
2024-04-25T05:58:49.787Z,15.20
2024-04-25T06:01:24.696Z,15.52
2024-04-25T06:03:59.566Z,18.45
2024-04-25T06:06:37.006Z,17.70
2024-04-25T06:09:11.872Z,14.30
2024-04-25T06:11:46.966Z,15.80
2024-04-25T06:14:23.887Z,19.95
2024-04-25T06:16:58.826Z,12.00
2024-04-25T06:19:33.680Z,11.57
2024-04-25T06:22:11.001Z,12.45
2024-04-25T06:24:46.040Z,20.38
2024-04-25T06:27:20.757Z,12.95
2024-04-25T06:29:55.542Z,14.35
2024-04-25T06:32:30.495Z,17.45
2024-04-25T06:35:05.341Z,14.57
2024-04-25T06:37:42.699Z,12.45
2024-04-25T06:40:18.280Z,17.17
2024-04-25T06:42:53.252Z,14.05
2024-04-25T06:45:28.252Z,22.45
2024-04-25T06:48:03.389Z,14.02
2024-04-25T06:50:38.862Z,21.58
2024-04-25T06:53:17.383Z,13.23
2024-04-25T06:55:52.280Z,12.95
2024-04-25T06:58:27.068Z,13.38
2024-04-25T07:01:02.154Z,16.17
2024-04-25T07:03:37.743Z,16.30
2024-04-25T07:06:12.679Z,12.82
2024-04-25T07:08:50.079Z,16.60
2024-04-25T07:11:31.920Z,21.55
2024-04-25T07:14:10.511Z,32.25
2024-04-25T07:16:45.463Z,26.05
2024-04-25T07:19:20.240Z,24.13
2024-04-25T07:21:56.130Z,33.40
2024-04-25T07:24:34.047Z,24.02
2024-04-25T07:27:09.207Z,19.85
2024-04-25T07:29:48.382Z,22.95
2024-04-25T07:32:23.745Z,29.55
2024-04-25T07:34:59.706Z,25.02
2024-04-25T07:37:34.980Z,21.45
2024-04-25T07:40:13.096Z,27.60
2024-04-25T07:42:47.919Z,25.73
2024-04-25T07:45:22.650Z,24.50
2024-04-25T07:47:57.616Z,22.90
2024-04-25T07:50:32.590Z,19.95
2024-04-25T07:53:07.770Z,20.58
2024-04-25T07:55:46.431Z,18.92
2024-04-25T07:58:21.367Z,22.58
2024-04-25T08:00:56.330Z,23.27
2024-04-25T08:03:31.362Z,24.55
2024-04-25T08:06:06.484Z,18.50
2024-04-25T08:08:41.463Z,23.95
2024-04-25T08:11:18.934Z,20.75
2024-04-25T08:13:53.743Z,20.15
2024-04-25T08:16:28.665Z,22.63
2024-04-25T08:19:03.502Z,18.70
2024-04-25T08:21:38.616Z,23.35
2024-04-25T08:24:14.418Z,16.55
2024-04-25T08:26:51.897Z,17.02
2024-04-25T08:29:26.831Z,19.48
2024-04-25T08:32:01.606Z,19.27
2024-04-25T08:34:36.456Z,18.45
2024-04-25T08:37:11.262Z,16.70
2024-04-25T08:39:46.159Z,20.73
2024-04-25T08:42:23.579Z,16.55
2024-04-25T08:44:58.713Z,16.38
2024-04-25T08:47:37.264Z,20.02
2024-04-25T08:50:15.288Z,18.27
2024-04-25T08:52:53.024Z,20.52
2024-04-25T08:55:28.451Z,17.23
2024-04-25T08:58:06.763Z,20.23
2024-04-25T09:00:43.483Z,16.98
2024-04-25T09:03:18.750Z,16.30
2024-04-25T09:05:53.602Z,16.92
2024-04-25T09:08:28.466Z,18.27
2024-04-25T09:11:03.287Z,19.10
2024-04-25T09:13:40.655Z,19.13
2024-04-25T09:16:15.914Z,19.25
2024-04-25T09:18:50.843Z,31.88
2024-04-25T09:21:25.658Z,15.18
2024-04-25T09:24:00.453Z,14.10
2024-04-25T09:26:36.242Z,16.63
2024-04-25T09:29:14.122Z,17.27
2024-04-25T09:31:48.911Z,18.55
2024-04-25T09:34:23.696Z,21.25
2024-04-25T09:36:58.935Z,19.70
2024-04-25T09:39:33.788Z,16.80
2024-04-25T09:42:09.357Z,17.98
2024-04-25T09:44:46.792Z,13.07
2024-04-25T09:47:37.345Z,17.67
2024-04-25T09:50:16.460Z,21.83
2024-04-25T09:52:57.952Z,18.73
2024-04-25T09:55:41.193Z,16.52
2024-04-25T09:58:25.547Z,15.95
2024-04-25T10:01:04.224Z,13.52
2024-04-25T10:03:39.708Z,13.88
2024-04-25T10:06:15.023Z,13.60
2024-04-25T10:08:50.815Z,12.82
2024-04-25T10:11:25.662Z,11.65
2024-04-25T10:14:01.053Z,13.32
2024-04-25T10:16:39.961Z,10.25
2024-04-25T10:19:14.815Z,14.30
2024-04-25T10:21:50.313Z,12.38
2024-04-25T10:24:25.136Z,11.27
2024-04-25T10:26:59.889Z,11.38
2024-04-25T10:29:35.120Z,10.63
2024-04-25T10:32:12.608Z,10.63
2024-04-25T10:34:48.526Z,10.38
2024-04-25T10:37:23.525Z,9.27
2024-04-25T10:40:01.426Z,8.50
2024-04-25T10:42:36.367Z,9.70
2024-04-25T10:45:11.877Z,9.85
2024-04-25T10:47:49.496Z,8.65
2024-04-25T10:50:24.405Z,12.43
2024-04-25T10:53:01.094Z,70.57
2024-04-25T10:55:35.899Z,76.68
2024-04-25T10:58:15.100Z,67.28
2024-04-25T11:00:50.118Z,48.83
2024-04-25T11:03:27.494Z,49.75
2024-04-25T11:06:02.876Z,57.75
2024-04-25T11:08:37.939Z,43.88
2024-04-25T11:11:13.707Z,47.83
2024-04-25T11:13:49.087Z,37.58
2024-04-25T11:16:24.166Z,35.45
2024-04-25T11:19:07.686Z,36.92
2024-04-25T11:21:51.629Z,30.88
2024-04-25T11:24:27.026Z,29.42
2024-04-25T11:27:03.543Z,28.50
2024-04-25T11:29:38.434Z,22.38
2024-04-25T11:32:13.353Z,25.40
2024-04-25T11:34:50.709Z,21.55
2024-04-25T11:37:25.581Z,26.08
2024-04-25T11:40:00.553Z,23.73
2024-04-25T11:42:35.510Z,29.33
2024-04-25T11:45:10.890Z,21.55
2024-04-25T11:47:45.974Z,23.33
2024-04-25T11:50:23.378Z,22.55
2024-04-25T11:52:58.133Z,32.15
2024-04-25T11:55:32.874Z,21.85
2024-04-25T11:58:08.852Z,19.92
2024-04-25T12:00:49.237Z,20.30
2024-04-25T12:03:24.164Z,19.33
2024-04-25T12:06:02.757Z,15.88
2024-04-25T12:08:39.176Z,14.27
2024-04-25T12:11:14.087Z,14.57
2024-04-25T12:13:50.185Z,11.68
2024-04-25T12:16:25.340Z,18.63
2024-04-25T12:19:00.128Z,14.52
2024-04-25T12:21:37.866Z,13.20
2024-04-25T12:24:12.628Z,9.77
2024-04-25T12:26:47.565Z,13.40
2024-04-25T12:29:22.370Z,8.85
2024-04-25T12:31:59.076Z,8.55
2024-04-25T12:34:33.993Z,8.70
2024-04-25T12:37:11.317Z,8.20
2024-04-25T12:39:46.195Z,9.75
2024-04-25T12:42:23.946Z,11.05
2024-04-25T12:44:58.964Z,10.40
2024-04-25T12:47:33.939Z,12.05
2024-04-25T12:50:14.120Z,15.32
2024-04-25T12:52:53.573Z,10.52
2024-04-25T12:55:28.848Z,13.75
2024-04-25T12:58:03.653Z,6.80
2024-04-25T13:00:38.599Z,8.27
2024-04-25T13:03:13.492Z,8.10
2024-04-25T13:05:49.050Z,7.10
2024-04-25T13:08:26.652Z,9.60
2024-04-25T13:11:01.561Z,6.95
2024-04-25T13:13:36.408Z,7.25
2024-04-25T13:16:12.714Z,10.15
2024-04-25T13:18:45.251Z,7.40
2024-04-25T13:21:20.216Z,7.72
2024-04-25T13:23:57.834Z,10.43
2024-04-25T13:26:35.538Z,5.88
2024-04-25T13:29:14.219Z,6.18
2024-04-25T13:31:49.330Z,6.28
2024-04-25T13:34:24.326Z,8.10
2024-04-25T13:36:59.166Z,6.75
2024-04-25T13:39:36.692Z,8.80
2024-04-25T13:42:13.121Z,5.57
2024-04-25T13:44:47.994Z,7.47
2024-04-25T13:47:22.948Z,8.02
2024-04-25T13:49:57.837Z,8.50
2024-04-25T13:52:32.707Z,7.00
2024-04-25T13:55:10.779Z,5.32
2024-04-25T13:57:45.525Z,12.05
2024-04-25T14:00:21.012Z,10.73
2024-04-25T14:02:55.823Z,12.25
2024-04-25T14:05:30.684Z,10.60
2024-04-25T14:08:05.582Z,5.05
2024-04-25T14:10:43.000Z,6.45
2024-04-25T14:13:17.790Z,6.55
2024-04-25T14:15:52.736Z,11.98
2024-04-25T14:18:27.685Z,6.90
2024-04-25T14:21:02.625Z,9.60
2024-04-25T14:23:37.373Z,7.10
2024-04-25T14:26:30.785Z,5.43
2024-04-25T14:29:05.966Z,8.48
2024-04-25T14:31:40.732Z,5.95
2024-04-25T14:34:15.594Z,8.50
2024-04-25T14:36:51.913Z,5.78
2024-04-25T14:39:26.812Z,10.10
2024-04-25T14:42:04.218Z,5.53
2024-04-25T14:44:41.344Z,10.13
2024-04-25T14:47:16.273Z,7.30
2024-04-25T14:49:51.379Z,5.32
2024-04-25T14:52:26.940Z,7.85
2024-04-25T14:55:01.709Z,6.10
2024-04-25T14:57:39.032Z,7.45
2024-04-25T15:00:15.140Z,10.63
2024-04-25T15:02:49.997Z,10.13
2024-04-25T15:05:24.786Z,9.13
2024-04-25T15:07:59.628Z,8.60
2024-04-25T15:10:35.284Z,4.93
2024-04-25T15:13:12.699Z,7.22
2024-04-25T15:15:47.535Z,6.07
2024-04-25T15:18:22.403Z,6.20
2024-04-25T15:20:57.404Z,6.85
2024-04-25T15:23:32.315Z,9.15
2024-04-25T15:26:07.520Z,9.57
2024-04-25T15:28:44.998Z,11.48
2024-04-25T15:31:23.757Z,12.85
2024-04-25T15:33:58.755Z,17.85
2024-04-25T15:36:33.637Z,15.43
2024-04-25T15:39:08.459Z,7.80
2024-04-25T15:41:43.641Z,17.45
2024-04-25T15:44:21.072Z,10.10
2024-04-25T15:46:55.868Z,9.50
2024-04-25T15:49:30.681Z,12.40
2024-04-25T15:52:05.554Z,36.47
2024-04-25T15:54:43.190Z,6.85
2024-04-25T15:57:18.564Z,12.13
2024-04-25T15:59:55.957Z,8.63
2024-04-25T16:02:31.682Z,8.23
2024-04-25T16:05:06.989Z,7.07
2024-04-25T16:07:41.854Z,8.90
2024-04-25T16:10:16.871Z,6.53
2024-04-25T16:12:51.783Z,8.88
2024-04-25T16:15:29.286Z,6.18
2024-04-25T16:18:04.268Z,4.72
2024-04-25T16:20:39.171Z,11.88
2024-04-25T16:23:14.056Z,11.75
2024-04-25T16:25:48.857Z,8.10
2024-04-25T16:28:23.728Z,12.23
2024-04-25T16:31:01.460Z,17.38
2024-04-25T16:33:36.438Z,11.65
2024-04-25T16:36:18.390Z,6.35
2024-04-25T16:38:53.146Z,8.80
2024-04-25T16:41:27.923Z,5.72
2024-04-25T16:44:02.704Z,9.00
2024-04-25T16:46:41.507Z,8.45
2024-04-25T16:49:13.817Z,9.98
2024-04-25T16:51:48.610Z,7.13
2024-04-25T16:54:25.775Z,8.07
2024-04-25T16:57:00.619Z,7.70
2024-04-25T16:59:35.665Z,7.30
2024-04-25T17:02:13.499Z,8.90
2024-04-25T17:04:50.562Z,4.95
2024-04-25T17:07:25.402Z,6.13
2024-04-25T17:10:00.339Z,7.32
2024-04-25T17:12:35.058Z,7.25
2024-04-25T17:15:11.041Z,4.88
2024-04-25T17:17:49.032Z,11.65
2024-04-25T17:20:23.986Z,5.97
2024-04-25T17:22:58.786Z,5.65
2024-04-25T17:25:33.638Z,11.43
2024-04-25T17:28:08.588Z,6.15
2024-04-25T17:30:43.328Z,13.63
2024-04-25T17:33:20.750Z,6.05
2024-04-25T17:35:56.060Z,4.22
2024-04-25T17:38:31.985Z,7.93
2024-04-25T17:41:07.066Z,7.95
2024-04-25T17:43:42.111Z,9.35
2024-04-25T17:46:16.942Z,7.15
2024-04-25T17:48:54.779Z,9.82
2024-04-25T17:51:36.485Z,9.52
2024-04-25T17:54:11.738Z,5.13
2024-04-25T17:56:46.588Z,6.28
2024-04-25T17:59:21.427Z,11.55
2024-04-25T18:01:57.515Z,5.78
2024-04-25T18:04:35.423Z,6.45
2024-04-25T18:07:13.885Z,12.98
2024-04-25T18:09:48.824Z,14.40
2024-04-25T18:12:23.622Z,36.72
2024-04-25T18:14:58.468Z,44.03
2024-04-25T18:17:33.342Z,49.50
2024-04-25T18:20:11.509Z,81.28
2024-04-25T18:22:46.409Z,75.50
2024-04-25T18:25:21.272Z,60.50
2024-04-25T18:27:56.053Z,65.85
2024-04-25T18:30:31.018Z,63.58
2024-04-25T18:33:06.195Z,65.40
2024-04-25T18:35:43.855Z,53.03
2024-04-25T18:38:18.771Z,60.45
2024-04-25T18:40:53.591Z,54.22
2024-04-25T18:43:28.673Z,47.28
2024-04-25T18:46:03.615Z,38.75
2024-04-25T18:48:40.512Z,34.42
2024-04-25T18:51:20.262Z,31.83
2024-04-25T18:53:55.152Z,30.33
2024-04-25T18:56:30.004Z,35.30
2024-04-25T18:59:04.824Z,33.33
2024-04-25T19:01:39.668Z,31.20
2024-04-25T19:04:14.458Z,38.08
2024-04-25T19:06:53.001Z,36.53
2024-04-25T19:09:28.080Z,27.98
2024-04-25T19:12:02.962Z,36.15
2024-04-25T19:14:37.896Z,44.70
2024-04-25T19:17:14.406Z,31.70
2024-04-25T19:19:49.894Z,37.67
2024-04-25T19:22:29.857Z,26.50
2024-04-25T19:25:04.761Z,26.25
2024-04-25T19:27:39.704Z,29.75
2024-04-25T19:30:15.631Z,24.52
2024-04-25T19:32:50.604Z,30.05
2024-04-25T19:35:25.699Z,23.00
2024-04-25T19:38:05.262Z,24.35
2024-04-25T19:40:40.330Z,26.70
2024-04-25T19:43:15.133Z,21.95
2024-04-25T19:45:49.913Z,21.90
2024-04-25T19:48:25.366Z,21.50
2024-04-25T19:51:01.667Z,23.75
2024-04-25T19:53:39.312Z,23.45
2024-04-25T19:56:15.018Z,22.70
2024-04-25T19:58:49.917Z,23.10
2024-04-25T20:01:24.867Z,20.42
2024-04-25T20:03:59.655Z,21.35
2024-04-25T20:06:34.490Z,18.63
2024-04-25T20:09:12.145Z,17.40
2024-04-25T20:11:46.994Z,22.10
2024-04-25T20:14:22.479Z,21.52
2024-04-25T20:16:59.195Z,22.90
2024-04-25T20:20:01.776Z,24.23
2024-04-25T20:22:36.667Z,27.15
2024-04-25T20:25:14.187Z,26.58
2024-04-25T20:27:49.897Z,28.65
2024-04-25T20:30:24.679Z,24.20
2024-04-25T20:32:59.544Z,26.15
2024-04-25T20:35:34.400Z,19.65
2024-04-25T20:38:09.221Z,26.20
2024-04-25T20:40:46.761Z,20.75
2024-04-25T20:43:21.540Z,22.67
2024-04-25T20:45:56.371Z,20.75
2024-04-25T20:48:31.216Z,20.73
2024-04-25T20:51:06.407Z,21.80
2024-04-25T20:53:43.388Z,22.27
2024-04-25T20:56:22.913Z,22.38
2024-04-25T20:58:57.867Z,24.45
2024-04-25T21:01:33.406Z,20.50
2024-04-25T21:04:08.469Z,20.52
2024-04-25T21:06:46.481Z,21.80
2024-04-25T21:09:22.904Z,24.85
2024-04-25T21:12:00.408Z,22.92
2024-04-25T21:14:38.608Z,20.42
2024-04-25T21:17:16.341Z,18.08
2024-04-25T21:19:51.174Z,22.90
2024-04-25T21:22:25.989Z,24.38
2024-04-25T21:25:00.776Z,24.27
2024-04-25T21:27:38.277Z,22.90
2024-04-25T21:30:13.456Z,22.75
2024-04-25T21:32:48.426Z,20.25
2024-04-25T21:35:23.292Z,23.67
2024-04-25T21:37:58.104Z,21.60
2024-04-25T21:40:33.884Z,21.65
2024-04-25T21:43:11.230Z,23.23
2024-04-25T21:45:46.003Z,19.98
2024-04-25T21:48:23.416Z,18.48
2024-04-25T21:50:58.273Z,25.52
2024-04-25T21:53:34.048Z,19.48
2024-04-25T21:56:09.634Z,25.15
2024-04-25T21:58:46.978Z,18.20
2024-04-25T22:01:23.352Z,22.25
2024-04-25T22:03:59.555Z,19.83
2024-04-25T22:06:34.790Z,20.35
2024-04-25T22:09:09.552Z,18.88
2024-04-25T22:11:44.372Z,19.27
2024-04-25T22:14:22.625Z,20.70
2024-04-25T22:16:57.948Z,23.88
2024-04-25T22:19:32.944Z,19.42
2024-04-25T22:22:07.741Z,19.00
2024-04-25T22:24:43.230Z,19.98
2024-04-25T22:27:22.369Z,20.08
2024-04-25T22:29:59.948Z,18.85
2024-04-25T22:32:34.888Z,20.92
2024-04-25T22:35:10.159Z,22.38
2024-04-25T22:37:45.859Z,23.95
2024-04-25T22:40:20.718Z,19.45
2024-04-25T22:42:55.518Z,20.55
2024-04-25T22:45:39.195Z,20.58
2024-04-25T22:48:16.060Z,19.00
2024-04-25T22:50:50.907Z,16.65
2024-04-25T22:53:25.809Z,16.48
2024-04-25T22:56:00.597Z,19.00
2024-04-25T22:58:35.376Z,17.63
2024-04-25T23:01:12.888Z,17.48
2024-04-25T23:03:47.784Z,17.88
2024-04-25T23:06:22.686Z,19.15
2024-04-25T23:08:57.529Z,18.15
2024-04-25T23:11:32.430Z,16.98
2024-04-25T23:14:09.117Z,15.32
2024-04-25T23:16:46.474Z,16.13
2024-04-25T23:19:21.424Z,15.15
2024-04-25T23:21:56.315Z,24.58
2024-04-25T23:24:31.292Z,19.30
2024-04-25T23:27:06.255Z,18.52
2024-04-25T23:29:41.122Z,16.48
2024-04-25T23:32:18.549Z,17.95
2024-04-25T23:34:53.290Z,17.20
2024-04-25T23:37:28.239Z,16.75
2024-04-25T23:40:04.465Z,15.38
2024-04-25T23:42:39.686Z,17.38
2024-04-25T23:45:14.552Z,16.15
2024-04-25T23:47:51.946Z,16.15
2024-04-25T23:50:26.771Z,15.73
2024-04-25T23:53:01.507Z,18.45
2024-04-25T23:55:36.303Z,15.07
2024-04-25T23:58:11.107Z,16.63
